sensor_id;sensor_type;location;lat;lon;timestamp;P1;durP1;ratioP1;P2;durP2;ratioP2
60239;SDS011;46102;39.012;-7.064;2023-02-12T00:01:50;1.20;;;1.10;;
60239;SDS011;46102;39.012;-7.064;2023-02-12T00:03:51;1.85;;;1.17;;
60239;SDS011;46102;39.012;-7.064;2023-02-12T00:05:52;1.85;;;0.93;;
60239;SDS011;46102;39.012;-7.064;2023-02-12T00:07:53;1.65;;;0.93;;
60239;SDS011;46102;39.012;-7.064;2023-02-12T00:09:53;2.28;;;0.80;;
60239;SDS011;46102;39.012;-7.064;2023-02-12T00:11:54;0.80;;;0.75;;
60239;SDS011;46102;39.012;-7.064;2023-02-12T00:13:55;0.82;;;0.82;;
60239;SDS011;46102;39.012;-7.064;2023-02-12T00:15:57;4.65;;;1.02;;
60239;SDS011;46102;39.012;-7.064;2023-02-12T00:17:58;1.05;;;0.80;;
60239;SDS011;46102;39.012;-7.064;2023-02-12T00:19:58;0.57;;;0.57;;
60239;SDS011;46102;39.012;-7.064;2023-02-12T00:21:59;0.68;;;0.68;;
60239;SDS011;46102;39.012;-7.064;2023-02-12T00:24:00;1.95;;;0.65;;
60239;SDS011;46102;39.012;-7.064;2023-02-12T00:26:08;1.38;;;1.08;;
60239;SDS011;46102;39.012;-7.064;2023-02-12T00:28:16;1.75;;;0.82;;
60239;SDS011;46102;39.012;-7.064;2023-02-12T00:30:17;1.77;;;0.70;;
60239;SDS011;46102;39.012;-7.064;2023-02-12T00:32:18;0.60;;;0.60;;
60239;SDS011;46102;39.012;-7.064;2023-02-12T00:34:19;1.05;;;0.70;;
60239;SDS011;46102;39.012;-7.064;2023-02-12T00:36:21;1.27;;;0.68;;
60239;SDS011;46102;39.012;-7.064;2023-02-12T00:38:23;1.55;;;0.98;;
60239;SDS011;46102;39.012;-7.064;2023-02-12T00:40:24;1.50;;;0.80;;
60239;SDS011;46102;39.012;-7.064;2023-02-12T00:42:25;0.70;;;0.70;;
60239;SDS011;46102;39.012;-7.064;2023-02-12T00:44:26;0.85;;;0.85;;
60239;SDS011;46102;39.012;-7.064;2023-02-12T00:46:26;1.13;;;0.90;;
60239;SDS011;46102;39.012;-7.064;2023-02-12T00:48:28;1.00;;;1.00;;
60239;SDS011;46102;39.012;-7.064;2023-02-12T00:50:28;1.13;;;0.70;;
60239;SDS011;46102;39.012;-7.064;2023-02-12T00:52:29;0.93;;;0.93;;
60239;SDS011;46102;39.012;-7.064;2023-02-12T00:54:30;0.80;;;0.60;;
60239;SDS011;46102;39.012;-7.064;2023-02-12T00:56:31;0.70;;;0.70;;
60239;SDS011;46102;39.012;-7.064;2023-02-12T00:58:32;0.80;;;0.80;;
60239;SDS011;46102;39.012;-7.064;2023-02-12T01:00:33;0.70;;;0.70;;
60239;SDS011;46102;39.012;-7.064;2023-02-12T01:02:34;0.60;;;0.60;;
60239;SDS011;46102;39.012;-7.064;2023-02-12T01:04:34;0.95;;;0.80;;
60239;SDS011;46102;39.012;-7.064;2023-02-12T01:06:35;0.95;;;0.70;;
60239;SDS011;46102;39.012;-7.064;2023-02-12T01:08:36;1.00;;;1.00;;
60239;SDS011;46102;39.012;-7.064;2023-02-12T01:10:38;0.95;;;0.73;;
60239;SDS011;46102;39.012;-7.064;2023-02-12T01:12:39;0.75;;;0.75;;
60239;SDS011;46102;39.012;-7.064;2023-02-12T01:14:40;0.80;;;0.52;;
60239;SDS011;46102;39.012;-7.064;2023-02-12T01:16:41;0.80;;;0.70;;
60239;SDS011;46102;39.012;-7.064;2023-02-12T01:18:42;0.65;;;0.65;;
60239;SDS011;46102;39.012;-7.064;2023-02-12T01:20:43;0.60;;;0.60;;
60239;SDS011;46102;39.012;-7.064;2023-02-12T01:22:44;1.05;;;0.82;;
60239;SDS011;46102;39.012;-7.064;2023-02-12T01:24:46;0.52;;;0.52;;
60239;SDS011;46102;39.012;-7.064;2023-02-12T01:26:47;2.13;;;1.05;;
60239;SDS011;46102;39.012;-7.064;2023-02-12T01:28:49;0.50;;;0.50;;
60239;SDS011;46102;39.012;-7.064;2023-02-12T01:30:51;0.63;;;0.63;;
60239;SDS011;46102;39.012;-7.064;2023-02-12T01:32:52;2.45;;;1.85;;
60239;SDS011;46102;39.012;-7.064;2023-02-12T01:34:55;1.50;;;0.50;;
60239;SDS011;46102;39.012;-7.064;2023-02-12T01:36:55;0.73;;;0.73;;
60239;SDS011;46102;39.012;-7.064;2023-02-12T01:38:56;0.88;;;0.88;;
60239;SDS011;46102;39.012;-7.064;2023-02-12T01:41:03;0.88;;;0.88;;
60239;SDS011;46102;39.012;-7.064;2023-02-12T01:43:11;1.15;;;0.85;;
60239;SDS011;46102;39.012;-7.064;2023-02-12T01:47:16;0.70;;;0.70;;
60239;SDS011;46102;39.012;-7.064;2023-02-12T01:49:21;2.80;;;0.73;;
60239;SDS011;46102;39.012;-7.064;2023-02-12T01:51:27;0.68;;;0.68;;
60239;SDS011;46102;39.012;-7.064;2023-02-12T01:53:32;1.52;;;0.75;;
60239;SDS011;46102;39.012;-7.064;2023-02-12T01:55:38;0.50;;;0.50;;
60239;SDS011;46102;39.012;-7.064;2023-02-12T01:57:40;0.60;;;0.60;;
60239;SDS011;46102;39.012;-7.064;2023-02-12T01:59:43;0.65;;;0.65;;
60239;SDS011;46102;39.012;-7.064;2023-02-12T02:01:47;0.93;;;0.80;;
60239;SDS011;46102;39.012;-7.064;2023-02-12T02:03:49;0.95;;;0.77;;
60239;SDS011;46102;39.012;-7.064;2023-02-12T02:06:07;0.70;;;0.70;;
60239;SDS011;46102;39.012;-7.064;2023-02-12T02:08:13;0.95;;;0.60;;
60239;SDS011;46102;39.012;-7.064;2023-02-12T02:10:14;0.68;;;0.60;;
60239;SDS011;46102;39.012;-7.064;2023-02-12T02:12:15;0.50;;;0.50;;
60239;SDS011;46102;39.012;-7.064;2023-02-12T02:14:35;0.60;;;0.60;;
60239;SDS011;46102;39.012;-7.064;2023-02-12T02:16:36;0.60;;;0.60;;
60239;SDS011;46102;39.012;-7.064;2023-02-12T02:18:46;0.75;;;0.75;;
60239;SDS011;46102;39.012;-7.064;2023-02-12T02:32:11;0.60;;;0.60;;
60239;SDS011;46102;39.012;-7.064;2023-02-12T02:38:40;0.60;;;0.60;;
60239;SDS011;46102;39.012;-7.064;2023-02-12T02:41:14;0.55;;;0.55;;
60239;SDS011;46102;39.012;-7.064;2023-02-12T02:43:26;0.70;;;0.70;;
60239;SDS011;46102;39.012;-7.064;2023-02-12T02:45:35;0.70;;;0.70;;
60239;SDS011;46102;39.012;-7.064;2023-02-12T02:47:48;0.50;;;0.50;;
60239;SDS011;46102;39.012;-7.064;2023-02-12T02:49:56;0.67;;;0.60;;
60239;SDS011;46102;39.012;-7.064;2023-02-12T02:52:02;1.00;;;0.90;;
60239;SDS011;46102;39.012;-7.064;2023-02-12T02:54:14;0.60;;;0.60;;
60239;SDS011;46102;39.012;-7.064;2023-02-12T02:56:19;0.60;;;0.60;;
60239;SDS011;46102;39.012;-7.064;2023-02-12T02:58:24;0.70;;;0.60;;
60239;SDS011;46102;39.012;-7.064;2023-02-12T03:00:34;0.60;;;0.60;;
60239;SDS011;46102;39.012;-7.064;2023-02-12T03:02:39;0.70;;;0.70;;
60239;SDS011;46102;39.012;-7.064;2023-02-12T03:04:45;1.25;;;0.50;;
60239;SDS011;46102;39.012;-7.064;2023-02-12T03:06:59;0.60;;;0.60;;
60239;SDS011;46102;39.012;-7.064;2023-02-12T03:09:18;0.60;;;0.60;;
60239;SDS011;46102;39.012;-7.064;2023-02-12T03:17:00;0.73;;;0.63;;
60239;SDS011;46102;39.012;-7.064;2023-02-12T03:19:07;0.63;;;0.63;;
60239;SDS011;46102;39.012;-7.064;2023-02-12T03:21:16;0.40;;;0.40;;
60239;SDS011;46102;39.012;-7.064;2023-02-12T03:23:23;0.60;;;0.60;;
60239;SDS011;46102;39.012;-7.064;2023-02-12T03:25:35;0.50;;;0.50;;
60239;SDS011;46102;39.012;-7.064;2023-02-12T03:27:41;0.50;;;0.50;;
60239;SDS011;46102;39.012;-7.064;2023-02-12T03:29:46;2.38;;;0.70;;
60239;SDS011;46102;39.012;-7.064;2023-02-12T03:34:49;0.98;;;0.60;;
60239;SDS011;46102;39.012;-7.064;2023-02-12T03:37:01;0.77;;;0.60;;
60239;SDS011;46102;39.012;-7.064;2023-02-12T03:39:11;0.45;;;0.45;;
60239;SDS011;46102;39.012;-7.064;2023-02-12T03:41:21;0.57;;;0.50;;
60239;SDS011;46102;39.012;-7.064;2023-02-12T03:43:49;0.55;;;0.55;;
60239;SDS011;46102;39.012;-7.064;2023-02-12T03:48:21;0.75;;;0.75;;
60239;SDS011;46102;39.012;-7.064;2023-02-12T03:52:27;0.63;;;0.63;;
60239;SDS011;46102;39.012;-7.064;2023-02-12T03:54:29;0.70;;;0.70;;
60239;SDS011;46102;39.012;-7.064;2023-02-12T03:56:32;0.68;;;0.50;;
60239;SDS011;46102;39.012;-7.064;2023-02-12T03:58:37;0.68;;;0.65;;
60239;SDS011;46102;39.012;-7.064;2023-02-12T04:00:40;0.50;;;0.50;;
60239;SDS011;46102;39.012;-7.064;2023-02-12T04:05:18;0.60;;;0.60;;
60239;SDS011;46102;39.012;-7.064;2023-02-12T04:09:23;0.68;;;0.68;;
60239;SDS011;46102;39.012;-7.064;2023-02-12T04:11:46;1.40;;;0.77;;
60239;SDS011;46102;39.012;-7.064;2023-02-12T04:14:08;0.70;;;0.70;;
60239;SDS011;46102;39.012;-7.064;2023-02-12T04:18:30;1.38;;;0.57;;
60239;SDS011;46102;39.012;-7.064;2023-02-12T04:25:47;0.90;;;0.75;;
60239;SDS011;46102;39.012;-7.064;2023-02-12T04:30:28;1.23;;;0.77;;
60239;SDS011;46102;39.012;-7.064;2023-02-12T04:34:49;0.82;;;0.82;;
60239;SDS011;46102;39.012;-7.064;2023-02-12T04:36:59;0.85;;;0.73;;
60239;SDS011;46102;39.012;-7.064;2023-02-12T04:39:08;0.70;;;0.70;;
60239;SDS011;46102;39.012;-7.064;2023-02-12T04:41:14;0.60;;;0.60;;
60239;SDS011;46102;39.012;-7.064;2023-02-12T04:43:24;1.10;;;0.90;;
60239;SDS011;46102;39.012;-7.064;2023-02-12T04:45:27;0.80;;;0.80;;
60239;SDS011;46102;39.012;-7.064;2023-02-12T04:47:30;0.95;;;0.70;;
60239;SDS011;46102;39.012;-7.064;2023-02-12T04:49:31;0.90;;;0.73;;
60239;SDS011;46102;39.012;-7.064;2023-02-12T04:51:32;0.98;;;0.80;;
60239;SDS011;46102;39.012;-7.064;2023-02-12T04:53:33;1.25;;;1.15;;
60239;SDS011;46102;39.012;-7.064;2023-02-12T04:55:33;0.70;;;0.60;;
60239;SDS011;46102;39.012;-7.064;2023-02-12T04:57:34;0.65;;;0.65;;
60239;SDS011;46102;39.012;-7.064;2023-02-12T04:59:35;0.77;;;0.77;;
60239;SDS011;46102;39.012;-7.064;2023-02-12T05:01:36;0.88;;;0.80;;
60239;SDS011;46102;39.012;-7.064;2023-02-12T05:03:38;1.08;;;0.90;;
60239;SDS011;46102;39.012;-7.064;2023-02-12T05:05:39;0.75;;;0.75;;
60239;SDS011;46102;39.012;-7.064;2023-02-12T05:07:39;0.60;;;0.60;;
60239;SDS011;46102;39.012;-7.064;2023-02-12T05:09:40;0.85;;;0.85;;
60239;SDS011;46102;39.012;-7.064;2023-02-12T05:11:41;0.80;;;0.73;;
60239;SDS011;46102;39.012;-7.064;2023-02-12T05:13:42;1.45;;;0.85;;
60239;SDS011;46102;39.012;-7.064;2023-02-12T05:15:43;2.30;;;1.20;;
60239;SDS011;46102;39.012;-7.064;2023-02-12T05:17:43;2.03;;;1.00;;
60239;SDS011;46102;39.012;-7.064;2023-02-12T05:19:46;0.98;;;0.98;;
60239;SDS011;46102;39.012;-7.064;2023-02-12T05:21:48;2.63;;;0.98;;
60239;SDS011;46102;39.012;-7.064;2023-02-12T05:23:50;3.88;;;1.08;;
60239;SDS011;46102;39.012;-7.064;2023-02-12T05:25:51;1.83;;;1.15;;
60239;SDS011;46102;39.012;-7.064;2023-02-12T05:27:51;2.15;;;0.90;;
60239;SDS011;46102;39.012;-7.064;2023-02-12T05:30:08;1.10;;;1.10;;
60239;SDS011;46102;39.012;-7.064;2023-02-12T05:32:09;1.23;;;1.13;;
60239;SDS011;46102;39.012;-7.064;2023-02-12T05:34:10;0.95;;;0.95;;
60239;SDS011;46102;39.012;-7.064;2023-02-12T05:36:12;1.90;;;1.02;;
60239;SDS011;46102;39.012;-7.064;2023-02-12T05:38:15;1.17;;;1.00;;
60239;SDS011;46102;39.012;-7.064;2023-02-12T05:40:16;1.30;;;1.08;;
60239;SDS011;46102;39.012;-7.064;2023-02-12T05:42:16;1.20;;;1.10;;
60239;SDS011;46102;39.012;-7.064;2023-02-12T05:44:17;3.95;;;1.02;;
60239;SDS011;46102;39.012;-7.064;2023-02-12T05:46:19;2.47;;;1.15;;
60239;SDS011;46102;39.012;-7.064;2023-02-12T05:48:21;0.98;;;0.90;;
60239;SDS011;46102;39.012;-7.064;2023-02-12T05:50:21;1.33;;;1.23;;
60239;SDS011;46102;39.012;-7.064;2023-02-12T05:52:32;1.42;;;1.33;;
60239;SDS011;46102;39.012;-7.064;2023-02-12T05:54:33;2.03;;;1.25;;
60239;SDS011;46102;39.012;-7.064;2023-02-12T05:56:36;1.63;;;1.20;;
60239;SDS011;46102;39.012;-7.064;2023-02-12T05:58:42;1.33;;;0.85;;
60239;SDS011;46102;39.012;-7.064;2023-02-12T06:00:45;2.22;;;1.50;;
60239;SDS011;46102;39.012;-7.064;2023-02-12T06:02:46;1.75;;;1.30;;
60239;SDS011;46102;39.012;-7.064;2023-02-12T06:04:46;2.40;;;1.40;;
60239;SDS011;46102;39.012;-7.064;2023-02-12T06:06:48;2.60;;;1.60;;
60239;SDS011;46102;39.012;-7.064;2023-02-12T06:08:49;2.38;;;1.50;;
60239;SDS011;46102;39.012;-7.064;2023-02-12T06:10:50;1.77;;;1.67;;
60239;SDS011;46102;39.012;-7.064;2023-02-12T06:12:53;2.33;;;1.63;;
60239;SDS011;46102;39.012;-7.064;2023-02-12T06:14:54;3.07;;;1.50;;
60239;SDS011;46102;39.012;-7.064;2023-02-12T06:16:55;1.48;;;1.38;;
60239;SDS011;46102;39.012;-7.064;2023-02-12T06:18:56;2.35;;;1.67;;
60239;SDS011;46102;39.012;-7.064;2023-02-12T06:20:57;1.67;;;1.58;;
60239;SDS011;46102;39.012;-7.064;2023-02-12T06:22:57;4.05;;;1.50;;
60239;SDS011;46102;39.012;-7.064;2023-02-12T06:24:58;3.22;;;1.70;;
60239;SDS011;46102;39.012;-7.064;2023-02-12T06:26:59;1.65;;;1.55;;
60239;SDS011;46102;39.012;-7.064;2023-02-12T06:29:00;1.52;;;1.40;;
60239;SDS011;46102;39.012;-7.064;2023-02-12T06:31:01;1.77;;;1.48;;
60239;SDS011;46102;39.012;-7.064;2023-02-12T06:33:02;2.45;;;1.70;;
60239;SDS011;46102;39.012;-7.064;2023-02-12T06:35:03;2.35;;;1.90;;
60239;SDS011;46102;39.012;-7.064;2023-02-12T06:37:04;2.92;;;1.77;;
60239;SDS011;46102;39.012;-7.064;2023-02-12T06:39:05;1.60;;;1.50;;
60239;SDS011;46102;39.012;-7.064;2023-02-12T06:41:06;1.65;;;1.55;;
60239;SDS011;46102;39.012;-7.064;2023-02-12T06:43:07;4.22;;;1.67;;
60239;SDS011;46102;39.012;-7.064;2023-02-12T06:45:08;2.33;;;1.55;;
60239;SDS011;46102;39.012;-7.064;2023-02-12T06:47:08;1.70;;;1.60;;
60239;SDS011;46102;39.012;-7.064;2023-02-12T06:49:09;2.10;;;1.90;;
60239;SDS011;46102;39.012;-7.064;2023-02-12T06:51:13;1.88;;;1.77;;
60239;SDS011;46102;39.012;-7.064;2023-02-12T06:53:15;3.42;;;1.38;;
60239;SDS011;46102;39.012;-7.064;2023-02-12T06:55:16;1.80;;;1.70;;
60239;SDS011;46102;39.012;-7.064;2023-02-12T06:57:17;1.80;;;1.70;;
60239;SDS011;46102;39.012;-7.064;2023-02-12T06:59:18;1.50;;;1.40;;
60239;SDS011;46102;39.012;-7.064;2023-02-12T07:01:20;1.88;;;1.58;;
60239;SDS011;46102;39.012;-7.064;2023-02-12T07:03:23;1.73;;;1.55;;
60239;SDS011;46102;39.012;-7.064;2023-02-12T07:05:24;1.75;;;1.65;;
60239;SDS011;46102;39.012;-7.064;2023-02-12T07:07:25;4.68;;;1.88;;
60239;SDS011;46102;39.012;-7.064;2023-02-12T07:09:25;4.57;;;1.80;;
60239;SDS011;46102;39.012;-7.064;2023-02-12T07:11:27;3.28;;;1.30;;
60239;SDS011;46102;39.012;-7.064;2023-02-12T07:13:30;5.53;;;1.60;;
60239;SDS011;46102;39.012;-7.064;2023-02-12T07:15:37;3.10;;;1.30;;
60239;SDS011;46102;39.012;-7.064;2023-02-12T07:17:38;4.38;;;1.63;;
60239;SDS011;46102;39.012;-7.064;2023-02-12T07:19:39;2.45;;;1.60;;
60239;SDS011;46102;39.012;-7.064;2023-02-12T07:21:39;3.38;;;1.48;;
60239;SDS011;46102;39.012;-7.064;2023-02-12T07:23:40;2.15;;;1.45;;
60239;SDS011;46102;39.012;-7.064;2023-02-12T07:25:41;1.83;;;1.60;;
60239;SDS011;46102;39.012;-7.064;2023-02-12T07:27:42;3.05;;;1.60;;
60239;SDS011;46102;39.012;-7.064;2023-02-12T07:29:43;3.58;;;1.73;;
60239;SDS011;46102;39.012;-7.064;2023-02-12T07:31:44;1.65;;;1.33;;
60239;SDS011;46102;39.012;-7.064;2023-02-12T07:33:45;2.45;;;1.27;;
60239;SDS011;46102;39.012;-7.064;2023-02-12T07:35:46;1.05;;;1.05;;
60239;SDS011;46102;39.012;-7.064;2023-02-12T07:37:47;1.85;;;1.35;;
60239;SDS011;46102;39.012;-7.064;2023-02-12T07:39:48;1.60;;;1.50;;
60239;SDS011;46102;39.012;-7.064;2023-02-12T07:41:49;1.45;;;1.35;;
60239;SDS011;46102;39.012;-7.064;2023-02-12T07:43:54;2.70;;;1.67;;
60239;SDS011;46102;39.012;-7.064;2023-02-12T07:46:01;2.00;;;1.65;;
60239;SDS011;46102;39.012;-7.064;2023-02-12T07:48:05;1.20;;;1.15;;
60239;SDS011;46102;39.012;-7.064;2023-02-12T07:50:06;2.33;;;1.40;;
60239;SDS011;46102;39.012;-7.064;2023-02-12T07:52:07;1.77;;;1.45;;
60239;SDS011;46102;39.012;-7.064;2023-02-12T07:54:09;1.58;;;1.42;;
60239;SDS011;46102;39.012;-7.064;2023-02-12T07:56:11;2.95;;;1.30;;
60239;SDS011;46102;39.012;-7.064;2023-02-12T07:58:12;5.28;;;1.58;;
60239;SDS011;46102;39.012;-7.064;2023-02-12T08:00:13;1.95;;;1.48;;
60239;SDS011;46102;39.012;-7.064;2023-02-12T08:02:14;3.55;;;1.77;;
60239;SDS011;46102;39.012;-7.064;2023-02-12T08:04:16;1.80;;;1.70;;
60239;SDS011;46102;39.012;-7.064;2023-02-12T08:06:20;2.05;;;1.55;;
60239;SDS011;46102;39.012;-7.064;2023-02-12T08:08:23;3.72;;;1.25;;
60239;SDS011;46102;39.012;-7.064;2023-02-12T08:10:24;3.50;;;2.10;;
60239;SDS011;46102;39.012;-7.064;2023-02-12T08:12:24;4.68;;;1.85;;
60239;SDS011;46102;39.012;-7.064;2023-02-12T08:14:25;2.28;;;1.90;;
60239;SDS011;46102;39.012;-7.064;2023-02-12T08:16:26;2.85;;;1.92;;
60239;SDS011;46102;39.012;-7.064;2023-02-12T08:18:29;2.03;;;1.80;;
60239;SDS011;46102;39.012;-7.064;2023-02-12T08:20:32;4.47;;;1.88;;
60239;SDS011;46102;39.012;-7.064;2023-02-12T08:22:33;2.05;;;1.85;;
60239;SDS011;46102;39.012;-7.064;2023-02-12T08:24:34;3.65;;;1.85;;
60239;SDS011;46102;39.012;-7.064;2023-02-12T08:26:36;1.85;;;1.75;;
60239;SDS011;46102;39.012;-7.064;2023-02-12T08:28:39;2.28;;;2.00;;
60239;SDS011;46102;39.012;-7.064;2023-02-12T08:30:41;5.13;;;2.15;;
60239;SDS011;46102;39.012;-7.064;2023-02-12T08:32:42;1.80;;;1.70;;
60239;SDS011;46102;39.012;-7.064;2023-02-12T08:34:43;4.75;;;1.73;;
60239;SDS011;46102;39.012;-7.064;2023-02-12T08:36:43;2.13;;;1.92;;
60239;SDS011;46102;39.012;-7.064;2023-02-12T08:38:45;3.10;;;1.50;;
60239;SDS011;46102;39.012;-7.064;2023-02-12T08:40:47;2.83;;;2.30;;
60239;SDS011;46102;39.012;-7.064;2023-02-12T08:42:48;2.72;;;1.73;;
60239;SDS011;46102;39.012;-7.064;2023-02-12T08:44:48;2.47;;;1.80;;
60239;SDS011;46102;39.012;-7.064;2023-02-12T08:46:50;1.83;;;1.73;;
60239;SDS011;46102;39.012;-7.064;2023-02-12T08:48:52;3.50;;;1.80;;
60239;SDS011;46102;39.012;-7.064;2023-02-12T08:50:54;2.42;;;2.05;;
60239;SDS011;46102;39.012;-7.064;2023-02-12T08:52:55;2.30;;;1.80;;
60239;SDS011;46102;39.012;-7.064;2023-02-12T08:54:56;3.17;;;2.60;;
60239;SDS011;46102;39.012;-7.064;2023-02-12T08:56:57;3.72;;;2.20;;
60239;SDS011;46102;39.012;-7.064;2023-02-12T08:59:00;2.08;;;1.83;;
60239;SDS011;46102;39.012;-7.064;2023-02-12T09:01:03;1.77;;;1.35;;
60239;SDS011;46102;39.012;-7.064;2023-02-12T09:03:08;3.00;;;1.63;;
60239;SDS011;46102;39.012;-7.064;2023-02-12T09:05:09;2.22;;;1.80;;
60239;SDS011;46102;39.012;-7.064;2023-02-12T09:07:09;5.13;;;1.95;;
60239;SDS011;46102;39.012;-7.064;2023-02-12T09:09:10;7.93;;;2.17;;
60239;SDS011;46102;39.012;-7.064;2023-02-12T09:11:12;1.95;;;1.52;;
60239;SDS011;46102;39.012;-7.064;2023-02-12T09:13:17;3.65;;;2.00;;
60239;SDS011;46102;39.012;-7.064;2023-02-12T09:15:18;2.03;;;1.92;;
60239;SDS011;46102;39.012;-7.064;2023-02-12T09:17:19;2.03;;;1.83;;
60239;SDS011;46102;39.012;-7.064;2023-02-12T09:19:19;2.05;;;1.63;;
60239;SDS011;46102;39.012;-7.064;2023-02-12T09:21:21;1.80;;;1.70;;
60239;SDS011;46102;39.012;-7.064;2023-02-12T09:23:22;1.98;;;1.48;;
60239;SDS011;46102;39.012;-7.064;2023-02-12T09:25:23;1.50;;;1.35;;
60239;SDS011;46102;39.012;-7.064;2023-02-12T09:27:24;1.80;;;1.70;;
60239;SDS011;46102;39.012;-7.064;2023-02-12T09:29:24;1.98;;;1.80;;
60239;SDS011;46102;39.012;-7.064;2023-02-12T09:31:26;5.55;;;1.75;;
60239;SDS011;46102;39.012;-7.064;2023-02-12T09:33:28;1.52;;;1.38;;
60239;SDS011;46102;39.012;-7.064;2023-02-12T09:35:29;3.30;;;1.33;;
60239;SDS011;46102;39.012;-7.064;2023-02-12T09:37:30;1.30;;;1.20;;
60239;SDS011;46102;39.012;-7.064;2023-02-12T09:39:30;1.67;;;1.58;;
60239;SDS011;46102;39.012;-7.064;2023-02-12T09:41:39;1.83;;;1.70;;
60239;SDS011;46102;39.012;-7.064;2023-02-12T09:46:13;1.65;;;1.55;;
60239;SDS011;46102;39.012;-7.064;2023-02-12T09:50:50;1.70;;;1.60;;
60239;SDS011;46102;39.012;-7.064;2023-02-12T09:52:54;2.95;;;1.60;;
60239;SDS011;46102;39.012;-7.064;2023-02-12T09:54:58;3.40;;;1.30;;
60239;SDS011;46102;39.012;-7.064;2023-02-12T09:56:59;4.57;;;1.52;;
60239;SDS011;46102;39.012;-7.064;2023-02-12T09:59:06;3.10;;;1.52;;
60239;SDS011;46102;39.012;-7.064;2023-02-12T10:01:11;4.80;;;1.95;;
60239;SDS011;46102;39.012;-7.064;2023-02-12T10:03:14;3.17;;;1.65;;
60239;SDS011;46102;39.012;-7.064;2023-02-12T10:05:18;1.88;;;1.50;;
60239;SDS011;46102;39.012;-7.064;2023-02-12T10:09:50;4.53;;;1.52;;
60239;SDS011;46102;39.012;-7.064;2023-02-12T10:12:03;1.63;;;1.40;;
60239;SDS011;46102;39.012;-7.064;2023-02-12T10:21:27;3.15;;;1.77;;
60239;SDS011;46102;39.012;-7.064;2023-02-12T10:26:09;3.10;;;1.23;;
60239;SDS011;46102;39.012;-7.064;2023-02-12T10:28:32;1.60;;;1.50;;
60239;SDS011;46102;39.012;-7.064;2023-02-12T10:32:50;1.38;;;1.27;;
60239;SDS011;46102;39.012;-7.064;2023-02-12T10:34:56;2.20;;;1.80;;
60239;SDS011;46102;39.012;-7.064;2023-02-12T10:37:14;3.70;;;1.80;;
60239;SDS011;46102;39.012;-7.064;2023-02-12T10:39:23;1.50;;;1.40;;
60239;SDS011;46102;39.012;-7.064;2023-02-12T10:41:28;4.57;;;1.60;;
60239;SDS011;46102;39.012;-7.064;2023-02-12T10:43:31;1.92;;;1.75;;
60239;SDS011;46102;39.012;-7.064;2023-02-12T10:45:33;2.25;;;1.45;;
60239;SDS011;46102;39.012;-7.064;2023-02-12T10:49:37;1.92;;;1.60;;
60239;SDS011;46102;39.012;-7.064;2023-02-12T10:51:47;5.93;;;1.27;;
60239;SDS011;46102;39.012;-7.064;2023-02-12T10:53:52;1.40;;;1.30;;
60239;SDS011;46102;39.012;-7.064;2023-02-12T10:56:04;3.47;;;1.60;;
60239;SDS011;46102;39.012;-7.064;2023-02-12T10:58:19;2.50;;;1.38;;
60239;SDS011;46102;39.012;-7.064;2023-02-12T11:00:29;4.25;;;1.50;;
60239;SDS011;46102;39.012;-7.064;2023-02-12T11:02:34;1.77;;;1.63;;
60239;SDS011;46102;39.012;-7.064;2023-02-12T11:04:35;5.38;;;1.50;;
60239;SDS011;46102;39.012;-7.064;2023-02-12T11:06:36;6.65;;;1.75;;
60239;SDS011;46102;39.012;-7.064;2023-02-12T11:08:38;2.83;;;1.48;;
60239;SDS011;46102;39.012;-7.064;2023-02-12T11:10:39;2.85;;;1.90;;
60239;SDS011;46102;39.012;-7.064;2023-02-12T11:12:41;4.43;;;1.70;;
60239;SDS011;46102;39.012;-7.064;2023-02-12T11:14:48;2.53;;;1.38;;
60239;SDS011;46102;39.012;-7.064;2023-02-12T11:16:58;1.90;;;1.63;;
60239;SDS011;46102;39.012;-7.064;2023-02-12T11:19:02;2.65;;;1.30;;
60239;SDS011;46102;39.012;-7.064;2023-02-12T11:21:06;2.65;;;1.52;;
60239;SDS011;46102;39.012;-7.064;2023-02-12T11:25:24;2.55;;;1.33;;
60239;SDS011;46102;39.012;-7.064;2023-02-12T11:27:27;4.50;;;2.17;;
60239;SDS011;46102;39.012;-7.064;2023-02-12T11:29:30;5.80;;;1.80;;
60239;SDS011;46102;39.012;-7.064;2023-02-12T11:31:33;1.48;;;1.25;;
60239;SDS011;46102;39.012;-7.064;2023-02-12T11:33:36;1.98;;;1.80;;
60239;SDS011;46102;39.012;-7.064;2023-02-12T11:35:37;3.85;;;1.80;;
60239;SDS011;46102;39.012;-7.064;2023-02-12T11:37:54;1.85;;;1.45;;
60239;SDS011;46102;39.012;-7.064;2023-02-12T11:39:56;3.35;;;1.73;;
60239;SDS011;46102;39.012;-7.064;2023-02-12T11:41:59;2.60;;;1.35;;
60239;SDS011;46102;39.012;-7.064;2023-02-12T11:44:17;5.30;;;1.20;;
60239;SDS011;46102;39.012;-7.064;2023-02-12T11:46:21;8.57;;;2.15;;
60239;SDS011;46102;39.012;-7.064;2023-02-12T11:48:30;1.90;;;1.30;;
60239;SDS011;46102;39.012;-7.064;2023-02-12T11:50:34;1.88;;;1.67;;
60239;SDS011;46102;39.012;-7.064;2023-02-12T11:52:36;3.35;;;1.33;;
60239;SDS011;46102;39.012;-7.064;2023-02-12T11:54:40;1.30;;;1.10;;
60239;SDS011;46102;39.012;-7.064;2023-02-12T11:56:46;10.68;;;2.25;;
60239;SDS011;46102;39.012;-7.064;2023-02-12T11:58:48;3.63;;;1.65;;
60239;SDS011;46102;39.012;-7.064;2023-02-12T12:02:56;2.03;;;1.42;;
60239;SDS011;46102;39.012;-7.064;2023-02-12T12:05:08;3.45;;;1.40;;
60239;SDS011;46102;39.012;-7.064;2023-02-12T12:07:19;7.32;;;1.92;;
60239;SDS011;46102;39.012;-7.064;2023-02-12T12:14:30;9.30;;;2.35;;
60239;SDS011;46102;39.012;-7.064;2023-02-12T12:17:01;12.32;;;4.38;;
60239;SDS011;46102;39.012;-7.064;2023-02-12T12:19:33;6.63;;;2.38;;
60239;SDS011;46102;39.012;-7.064;2023-02-12T12:26:32;9.25;;;2.47;;
60239;SDS011;46102;39.012;-7.064;2023-02-12T12:28:42;6.47;;;1.95;;
60239;SDS011;46102;39.012;-7.064;2023-02-12T12:30:50;4.65;;;2.58;;
60239;SDS011;46102;39.012;-7.064;2023-02-12T12:32:58;10.60;;;2.17;;
60239;SDS011;46102;39.012;-7.064;2023-02-12T12:35:03;7.65;;;2.60;;
60239;SDS011;46102;39.012;-7.064;2023-02-12T12:53:18;5.13;;;2.08;;
60239;SDS011;46102;39.012;-7.064;2023-02-12T12:55:43;8.70;;;1.88;;
60239;SDS011;46102;39.012;-7.064;2023-02-12T13:00:20;4.68;;;2.25;;
60239;SDS011;46102;39.012;-7.064;2023-02-12T13:05:30;6.95;;;1.88;;
60239;SDS011;46102;39.012;-7.064;2023-02-12T13:12:07;5.07;;;2.22;;
60239;SDS011;46102;39.012;-7.064;2023-02-12T13:14:34;4.03;;;2.10;;
60239;SDS011;46102;39.012;-7.064;2023-02-12T13:16:59;5.90;;;2.30;;
60239;SDS011;46102;39.012;-7.064;2023-02-12T13:19:06;5.55;;;1.98;;
60239;SDS011;46102;39.012;-7.064;2023-02-12T13:21:39;6.88;;;2.53;;
60239;SDS011;46102;39.012;-7.064;2023-02-12T13:28:15;3.95;;;1.67;;
60239;SDS011;46102;39.012;-7.064;2023-02-12T13:30:26;2.28;;;1.65;;
60239;SDS011;46102;39.012;-7.064;2023-02-12T13:32:34;5.32;;;1.60;;
60239;SDS011;46102;39.012;-7.064;2023-02-12T13:34:42;3.47;;;1.15;;
60239;SDS011;46102;39.012;-7.064;2023-02-12T13:36:43;6.93;;;1.92;;
60239;SDS011;46102;39.012;-7.064;2023-02-12T13:38:46;7.80;;;1.95;;
60239;SDS011;46102;39.012;-7.064;2023-02-12T13:40:51;1.52;;;1.05;;
60239;SDS011;46102;39.012;-7.064;2023-02-12T13:45:41;2.33;;;1.35;;
60239;SDS011;46102;39.012;-7.064;2023-02-12T13:52:32;6.40;;;2.08;;
60239;SDS011;46102;39.012;-7.064;2023-02-12T13:54:45;3.63;;;1.85;;
60239;SDS011;46102;39.012;-7.064;2023-02-12T13:56:58;7.60;;;1.60;;
60239;SDS011;46102;39.012;-7.064;2023-02-12T13:59:00;6.93;;;1.90;;
60239;SDS011;46102;39.012;-7.064;2023-02-12T14:03:15;6.28;;;1.88;;
60239;SDS011;46102;39.012;-7.064;2023-02-12T14:05:26;6.18;;;1.75;;
60239;SDS011;46102;39.012;-7.064;2023-02-12T14:07:40;30.83;;;13.98;;
60239;SDS011;46102;39.012;-7.064;2023-02-12T14:11:50;27.95;;;13.70;;
60239;SDS011;46102;39.012;-7.064;2023-02-12T14:13:57;37.42;;;20.83;;
60239;SDS011;46102;39.012;-7.064;2023-02-12T14:18:34;26.98;;;16.05;;
60239;SDS011;46102;39.012;-7.064;2023-02-12T14:20:37;22.58;;;14.52;;
60239;SDS011;46102;39.012;-7.064;2023-02-12T14:24:46;11.05;;;2.53;;
60239;SDS011;46102;39.012;-7.064;2023-02-12T14:26:49;3.50;;;2.47;;
60239;SDS011;46102;39.012;-7.064;2023-02-12T14:33:19;3.60;;;1.70;;